Time;durP1;ratioP1;P1;durP2;ratioP2;P2;SDS_P1;SDS_P2;PMS_P1;PMS_P2;Temp;Humidity;BMP_temperature;BMP_pressure;BME280_temperature;BME280_humidity;BME280_pressure;Samples;Min_cycle;Max_cycle;Signal;HPM_P1;HPM_P2
2024/03/29 00:02:26;;;;;;;15.00;2.65;;;10.00;92.90;;;;;;6268606;28;20148;-82
2024/03/29 00:05:27;;;;;;;21.63;3.15;;;9.90;94.50;;;;;;6291415;28;20400;-82
2024/03/29 00:08:28;;;;;;;20.17;3.05;;;9.90;96.50;;;;;;6326140;28;20139;-82
2024/03/29 00:11:29;;;;;;;15.32;2.67;;;9.90;97.60;;;;;;6268775;28;20369;-83
2024/03/29 00:14:30;;;;;;;16.08;2.40;;;9.70;99.90;;;;;;6270711;28;20507;-83
2024/03/29 00:17:31;;;;;;;18.00;2.42;;;9.60;99.90;;;;;;6275247;28;20048;-82
2024/03/29 00:20:32;;;;;;;17.17;2.53;;;9.50;99.90;;;;;;6288660;28;20518;-83
2024/03/29 00:23:33;;;;;;;21.23;2.35;;;9.50;99.90;;;;;;6251630;28;20049;-82
2024/03/29 00:26:34;;;;;;;12.73;2.35;;;9.40;99.90;;;;;;6252244;28;20096;-82
2024/03/29 00:29:34;;;;;;;14.35;2.00;;;9.50;99.90;;;;;;6269405;28;20059;-82
2024/03/29 00:32:35;;;;;;;14.85;2.22;;;9.40;99.90;;;;;;6289270;28;20053;-82
2024/03/29 00:35:35;;;;;;;16.58;2.33;;;9.40;99.90;;;;;;6270195;28;20492;-82
2024/03/29 00:38:36;;;;;;;13.55;2.30;;;9.40;98.60;;;;;;6291921;28;20139;-81
2024/03/29 00:41:37;;;;;;;18.30;2.22;;;9.40;98.50;;;;;;6268051;28;20199;-82
2024/03/29 00:44:38;;;;;;;17.15;2.42;;;9.20;99.40;;;;;;6272842;28;20135;-82
2024/03/29 00:47:39;;;;;;;13.13;2.15;;;9.20;99.90;;;;;;6275947;28;20096;-82
2024/03/29 00:50:40;;;;;;;20.08;2.75;;;9.20;99.90;;;;;;6330755;28;20139;-82
2024/03/29 00:53:41;;;;;;;13.52;2.28;;;9.10;99.90;;;;;;6254969;28;20428;-82
2024/03/29 00:56:41;;;;;;;17.42;2.10;;;9.10;99.90;;;;;;6272313;28;20493;-81
2024/03/29 00:59:43;;;;;;;14.95;1.70;;;9.00;99.90;;;;;;6268346;28;20060;-82
2024/03/29 01:02:44;;;;;;;14.70;1.83;;;9.00;99.90;;;;;;6291652;28;20519;-81
2024/03/29 01:05:44;;;;;;;11.77;1.80;;;9.00;99.90;;;;;;6274989;28;20150;-81
2024/03/29 01:08:45;;;;;;;14.13;1.90;;;9.00;99.90;;;;;;6293721;28;20503;-81
2024/03/29 01:11:46;;;;;;;14.38;2.38;;;8.90;99.90;;;;;;6279976;28;20056;-82
2024/03/29 01:14:46;;;;;;;20.23;2.50;;;9.00;99.90;;;;;;6271174;28;20052;-81
2024/03/29 01:17:47;;;;;;;10.82;2.08;;;8.90;99.90;;;;;;6254810;28;20061;-82
2024/03/29 01:20:47;;;;;;;12.20;1.98;;;9.00;99.90;;;;;;6289560;28;20049;-82
2024/03/29 01:23:49;;;;;;;19.77;2.40;;;9.10;99.90;;;;;;6271391;28;20087;-83
2024/03/29 01:26:49;;;;;;;13.27;2.28;;;9.10;99.90;;;;;;6286656;28;20424;-82
2024/03/29 01:29:50;;;;;;;17.80;2.10;;;9.10;99.90;;;;;;6303530;28;20135;-82
2024/03/29 01:32:51;;;;;;;12.82;2.05;;;9.10;99.90;;;;;;6289784;28;20500;-82
2024/03/29 01:35:51;;;;;;;12.68;2.00;;;9.10;99.90;;;;;;6278266;28;20053;-82
2024/03/29 01:38:55;;;;;;;11.07;2.00;;;9.00;99.90;;;;;;6295158;28;20127;-82
2024/03/29 01:41:55;;;;;;;12.82;2.08;;;9.00;99.90;;;;;;6271155;28;20068;-82
2024/03/29 01:44:56;;;;;;;13.63;1.70;;;9.10;99.90;;;;;;6285604;28;20060;-82
2024/03/29 01:47:57;;;;;;;9.77;1.60;;;9.10;99.90;;;;;;6271162;28;20508;-82
2024/03/29 01:50:57;;;;;;;9.18;1.55;;;9.10;99.90;;;;;;6294747;28;20431;-82
2024/03/29 01:53:58;;;;;;;8.55;1.48;;;9.00;99.90;;;;;;6270786;28;20053;-81
2024/03/29 01:56:59;;;;;;;11.80;1.73;;;9.00;99.90;;;;;;6284467;28;20132;-82
2024/03/29 02:00:00;;;;;;;7.97;1.67;;;9.00;99.90;;;;;;6267311;28;20060;-82
2024/03/29 02:03:00;;;;;;;13.50;1.67;;;9.00;99.90;;;;;;6287159;28;20086;-81
2024/03/29 02:06:01;;;;;;;11.43;1.73;;;9.00;99.90;;;;;;6328621;28;20534;-81
2024/03/29 02:09:03;;;;;;;8.98;1.77;;;9.00;99.90;;;;;;6268347;28;20481;-82
2024/03/29 02:12:04;;;;;;;12.63;1.73;;;9.00;99.90;;;;;;6254073;28;20076;-82
2024/03/29 02:15:05;;;;;;;6.93;1.27;;;9.10;99.90;;;;;;6284616;28;20056;-81
2024/03/29 02:18:05;;;;;;;8.68;1.50;;;9.00;99.90;;;;;;6270585;28;20156;-81
2024/03/29 02:21:06;;;;;;;9.20;2.05;;;9.10;99.90;;;;;;6282514;28;20110;-81
2024/03/29 02:24:07;;;;;;;10.23;1.60;;;8.90;99.90;;;;;;6268929;28;20538;-81
2024/03/29 02:27:08;;;;;;;10.65;1.55;;;8.90;99.90;;;;;;6293575;28;20056;-81
2024/03/29 02:30:09;;;;;;;10.32;1.50;;;8.90;99.90;;;;;;6248238;28;20111;-80
2024/03/29 02:33:10;;;;;;;12.82;1.60;;;8.90;99.90;;;;;;6321067;28;20542;-80
2024/03/29 02:36:13;;;;;;;9.18;1.52;;;8.90;99.90;;;;;;6295935;28;20065;-81
2024/03/29 02:39:14;;;;;;;14.35;2.15;;;8.80;99.90;;;;;;6270861;28;20072;-81
2024/03/29 02:42:14;;;;;;;11.57;1.85;;;8.80;99.90;;;;;;6253185;28;20049;-80
2024/03/29 02:45:15;;;;;;;13.90;1.90;;;8.80;99.90;;;;;;6321602;28;20056;-81
2024/03/29 02:48:16;;;;;;;12.57;1.83;;;8.70;99.90;;;;;;6269879;28;20071;-81
2024/03/29 02:51:17;;;;;;;12.18;1.70;;;8.70;99.90;;;;;;6279819;28;20107;-81
2024/03/29 02:54:17;;;;;;;11.98;1.85;;;8.70;99.90;;;;;;6282330;28;20045;-80
2024/03/29 02:57:18;;;;;;;10.80;2.00;;;8.70;99.90;;;;;;6292598;28;20052;-81
2024/03/29 03:00:19;;;;;;;11.63;1.90;;;8.60;99.90;;;;;;6258170;28;20056;-81
2024/03/29 03:03:19;;;;;;;10.73;1.55;;;8.50;99.90;;;;;;6282525;28;20078;-82
2024/03/29 03:06:20;;;;;;;13.10;1.73;;;8.50;99.90;;;;;;6279419;28;20053;-83
2024/03/29 03:12:40;;;;;;;12.23;1.98;;;8.40;99.90;;;;;;6267804;28;20061;-81
2024/03/29 03:15:41;;;;;;;10.32;1.50;;;8.40;99.90;;;;;;6287451;28;20067;-82
2024/03/29 03:18:42;;;;;;;9.90;1.73;;;8.30;99.90;;;;;;6269084;28;20110;-82
2024/03/29 03:21:42;;;;;;;12.52;2.13;;;8.30;99.90;;;;;;6262515;28;20222;-82
2024/03/29 03:24:43;;;;;;;9.73;1.60;;;8.20;99.90;;;;;;6268855;28;20067;-82
2024/03/29 03:27:44;;;;;;;12.68;1.67;;;8.20;99.90;;;;;;6293002;28;20052;-81
2024/03/29 03:30:45;;;;;;;7.88;1.38;;;8.10;99.90;;;;;;6259186;28;20500;-82
2024/03/29 03:33:46;;;;;;;9.63;1.40;;;8.10;99.90;;;;;;6254301;28;20059;-82
2024/03/29 03:36:46;;;;;;;9.55;1.98;;;8.00;99.90;;;;;;6293544;28;20534;-82
2024/03/29 03:39:47;;;;;;;9.07;1.38;;;8.10;99.90;;;;;;6253262;28;20060;-82
2024/03/29 03:42:48;;;;;;;5.57;0.98;;;8.00;99.90;;;;;;6276011;28;20060;-82
2024/03/29 03:45:49;;;;;;;7.50;1.38;;;8.00;99.90;;;;;;6263684;28;20057;-82
2024/03/29 03:48:49;;;;;;;7.32;1.13;;;8.00;99.90;;;;;;6267698;28;20590;-81
2024/03/29 03:51:50;;;;;;;7.40;1.08;;;8.00;99.90;;;;;;6293355;28;20055;-79
2024/03/29 03:54:50;;;;;;;8.00;1.10;;;7.90;99.90;;;;;;6258946;28;20061;-80
2024/03/29 03:57:51;;;;;;;8.05;1.10;;;7.90;99.90;;;;;;6313135;28;20099;-80
2024/03/29 04:00:52;;;;;;;5.50;1.00;;;7.90;99.90;;;;;;6257601;28;20060;-80
2024/03/29 04:03:52;;;;;;;6.32;1.20;;;7.80;99.90;;;;;;6278676;28;20057;-81
2024/03/29 04:06:53;;;;;;;7.03;1.10;;;7.70;99.90;;;;;;6315344;28;20072;-81
2024/03/29 04:09:54;;;;;;;7.30;1.20;;;7.70;99.90;;;;;;6281144;28;20063;-82
2024/03/29 04:12:55;;;;;;;4.78;1.08;;;7.70;99.90;;;;;;6258164;28;20105;-82
2024/03/29 04:15:55;;;;;;;5.75;1.20;;;7.60;99.90;;;;;;6288529;28;20060;-82
2024/03/29 04:18:56;;;;;;;4.97;0.80;;;7.60;99.90;;;;;;6244626;28;20053;-82
2024/03/29 04:21:56;;;;;;;3.22;0.70;;;7.60;99.90;;;;;;6274146;28;20061;-82
2024/03/29 04:24:57;;;;;;;4.43;1.05;;;7.50;99.90;;;;;;6292144;28;20059;-81
2024/03/29 04:27:58;;;;;;;3.85;0.75;;;7.60;99.90;;;;;;6250969;28;20092;-79
2024/03/29 04:30:59;;;;;;;5.22;0.70;;;7.50;99.90;;;;;;6282706;28;20054;-81
2024/03/29 04:34:00;;;;;;;6.05;0.82;;;7.60;99.90;;;;;;6250064;28;20056;-81
2024/03/29 04:37:00;;;;;;;4.68;0.80;;;7.50;99.90;;;;;;6278140;28;20056;-81
2024/03/29 04:40:03;;;;;;;2.45;0.70;;;7.50;99.90;;;;;;6277288;28;20062;-82
2024/03/29 04:43:03;;;;;;;3.53;0.75;;;7.40;99.90;;;;;;6251372;28;20068;-83
2024/03/29 04:46:04;;;;;;;5.20;0.90;;;7.30;99.90;;;;;;6270709;28;20127;-82
2024/03/29 04:49:05;;;;;;;3.42;0.63;;;7.30;99.90;;;;;;6242797;28;20155;-83
2024/03/29 04:52:06;;;;;;;5.63;0.73;;;7.30;99.90;;;;;;6317453;28;20511;-83
2024/03/29 04:55:06;;;;;;;4.55;0.70;;;7.30;99.90;;;;;;6291486;28;20048;-83
2024/03/29 04:58:07;;;;;;;4.60;0.70;;;7.30;99.90;;;;;;6252617;28;20061;-84
2024/03/29 05:01:07;;;;;;;4.90;0.70;;;7.30;99.90;;;;;;6256315;28;20397;-82
2024/03/29 05:04:08;;;;;;;5.47;1.05;;;7.30;99.90;;;;;;6291657;28;20052;-83
2024/03/29 05:07:09;;;;;;;10.52;1.15;;;7.30;99.90;;;;;;6266991;28;20060;-83
2024/03/29 05:10:10;;;;;;;6.75;0.80;;;7.30;99.90;;;;;;6290952;28;20056;-83
2024/03/29 05:13:12;;;;;;;7.20;1.50;;;7.30;99.90;;;;;;6269176;28;20049;-82
2024/03/29 05:16:13;;;;;;;9.95;1.45;;;7.30;99.90;;;;;;6283901;28;20240;-82
2024/03/29 05:19:14;;;;;;;8.43;1.52;;;7.30;99.90;;;;;;6226050;28;20053;-83
2024/03/29 05:22:15;;;;;;;15.30;2.10;;;7.30;99.90;;;;;;6325661;28;20502;-82
2024/03/29 05:25:16;;;;;;;12.35;2.00;;;7.40;99.90;;;;;;6266923;28;20127;-82
2024/03/29 05:28:16;;;;;;;15.27;2.33;;;7.30;99.90;;;;;;6288508;28;20057;-82
2024/03/29 05:31:18;;;;;;;13.70;1.75;;;7.40;99.90;;;;;;6249699;28;20059;-81
2024/03/29 05:34:19;;;;;;;13.18;2.00;;;7.50;99.90;;;;;;6246975;28;20068;-82
2024/03/29 05:37:20;;;;;;;13.88;2.20;;;7.60;99.90;;;;;;6329665;28;20060;-82
2024/03/29 05:40:27;;;;;;;18.10;2.25;;;7.70;99.90;;;;;;6254998;28;20053;-83
2024/03/29 05:43:28;;;;;;;12.85;2.33;;;7.80;99.90;;;;;;6262313;28;20111;-82
2024/03/29 05:46:28;;;;;;;14.48;2.45;;;7.80;99.90;;;;;;6291244;28;20052;-83
2024/03/29 05:49:29;;;;;;;16.08;2.13;;;7.80;99.90;;;;;;6271367;28;20064;-83
2024/03/29 05:52:30;;;;;;;17.80;2.15;;;7.90;99.90;;;;;;6275252;28;20110;-82
2024/03/29 05:55:31;;;;;;;10.93;2.20;;;7.90;99.90;;;;;;6268710;28;20057;-83
2024/03/29 05:58:31;;;;;;;16.50;2.22;;;8.00;99.90;;;;;;6268265;28;20113;-82
2024/03/29 06:01:32;;;;;;;14.98;2.25;;;8.10;99.90;;;;;;6270752;28;20123;-82
2024/03/29 06:04:33;;;;;;;11.73;1.80;;;8.00;99.90;;;;;;6271127;28;20056;-82
2024/03/29 06:07:33;;;;;;;17.40;2.42;;;8.00;99.90;;;;;;6295363;28;20121;-82
2024/03/29 06:10:34;;;;;;;11.60;2.00;;;8.10;99.90;;;;;;6270201;28;20118;-82
2024/03/29 06:20:13;;;;;;;14.82;2.25;;;8.10;99.90;;;;;;6247595;28;20049;-82
2024/03/29 06:23:14;;;;;;;12.13;1.83;;;8.20;99.90;;;;;;6269714;28;20132;-81
2024/03/29 06:26:15;;;;;;;14.60;1.90;;;8.20;99.90;;;;;;6277168;28;20415;-81
2024/03/29 06:29:16;;;;;;;10.38;1.63;;;8.30;99.90;;;;;;6271255;28;20131;-82
2024/03/29 06:32:18;;;;;;;11.88;1.95;;;8.20;99.90;;;;;;6270738;28;20088;-81
2024/03/29 06:35:21;;;;;;;11.68;1.70;;;8.30;99.90;;;;;;6325876;28;20052;-81
2024/03/29 06:38:22;;;;;;;13.75;1.92;;;8.30;99.90;;;;;;6294036;28;20062;-81
2024/03/29 06:41:23;;;;;;;19.77;2.15;;;8.30;99.90;;;;;;6270006;28;20122;-82
2024/03/29 06:44:23;;;;;;;8.93;1.60;;;8.40;99.90;;;;;;6277356;28;20061;-82
2024/03/29 06:47:24;;;;;;;13.27;2.15;;;8.40;99.90;;;;;;6294073;28;20048;-82
2024/03/29 06:50:25;;;;;;;11.05;1.85;;;8.40;99.90;;;;;;6270370;28;20568;-82
2024/03/29 06:53:26;;;;;;;11.77;2.10;;;8.40;99.90;;;;;;6273760;28;20124;-83
2024/03/29 06:56:27;;;;;;;10.63;1.90;;;8.50;99.90;;;;;;6269929;28;20190;-82
2024/03/29 06:59:28;;;;;;;10.32;2.00;;;8.70;99.90;;;;;;6272030;28;20345;-82
2024/03/29 07:02:28;;;;;;;11.05;1.40;;;8.90;99.90;;;;;;6279591;28;20776;-82
2024/03/29 07:05:29;;;;;;;16.70;2.08;;;9.10;99.90;;;;;;6293428;28;20048;-82
2024/03/29 07:08:30;;;;;;;10.73;1.60;;;9.20;99.90;;;;;;6270429;28;20059;-82
2024/03/29 07:11:30;;;;;;;12.18;1.98;;;9.30;99.90;;;;;;6293278;28;20060;-81
2024/03/29 07:14:33;;;;;;;6.57;1.52;;;9.20;99.90;;;;;;6267033;28;20585;-80
2024/03/29 07:17:34;;;;;;;10.77;2.13;;;9.30;99.90;;;;;;6268708;28;20439;-80
2024/03/29 07:20:35;;;;;;;9.98;2.05;;;9.40;99.90;;;;;;6289440;28;20059;-81
2024/03/29 07:23:35;;;;;;;10.00;1.70;;;9.60;99.90;;;;;;6268425;28;20135;-81
2024/03/29 07:26:36;;;;;;;8.68;1.50;;;9.60;99.90;;;;;;6270813;28;20123;-80
2024/03/29 07:29:37;;;;;;;10.07;1.63;;;9.60;99.90;;;;;;6273454;28;20474;-81
2024/03/29 07:32:38;;;;;;;9.40;1.58;;;9.60;99.90;;;;;;6278264;28;20183;-80
2024/03/29 07:35:41;;;;;;;12.55;1.90;;;9.60;99.90;;;;;;6293396;28;20056;-82
2024/03/29 07:38:42;;;;;;;9.90;1.70;;;10.10;99.90;;;;;;6271397;28;20053;-82
2024/03/29 07:41:43;;;;;;;9.20;1.60;;;10.50;98.10;;;;;;6268999;28;20055;-82
2024/03/29 07:44:44;;;;;;;8.50;1.52;;;10.50;95.60;;;;;;6264671;28;20061;-82
2024/03/29 07:47:46;;;;;;;8.70;1.58;;;10.50;95.70;;;;;;6292467;28;20721;-82
2024/03/29 07:50:47;;;;;;;5.95;1.30;;;10.70;92.80;;;;;;6268263;28;20052;-82
2024/03/29 07:53:47;;;;;;;10.35;1.65;;;10.90;87.40;;;;;;6259795;28;20766;-83
2024/03/29 07:56:48;;;;;;;6.03;1.63;;;11.10;94.70;;;;;;6269471;28;20048;-82
2024/03/29 07:59:49;;;;;;;11.75;1.90;;;11.10;89.70;;;;;;6248214;28;20060;-84
2024/03/29 08:02:51;;;;;;;10.90;1.70;;;11.00;91.00;;;;;;6258164;28;20053;-84
2024/03/29 08:05:51;;;;;;;9.98;1.50;;;10.80;84.10;;;;;;6278160;28;20049;-86
2024/03/29 08:08:52;;;;;;;7.95;1.73;;;10.90;92.50;;;;;;6254267;28;20064;-85
2024/03/29 08:11:53;;;;;;;12.07;2.08;;;11.10;91.80;;;;;;6277233;28;20052;-83
2024/03/29 08:14:54;;;;;;;9.90;1.70;;;11.20;79.60;;;;;;6235945;28;20083;-86
2024/03/29 08:17:55;;;;;;;12.43;1.70;;;11.50;90.90;;;;;;6297714;28;20053;-89
2024/03/29 08:20:55;;;;;;;8.68;1.88;;;11.50;84.30;;;;;;6261981;28;20502;-84
2024/03/29 08:23:56;;;;;;;10.80;1.60;;;11.80;73.40;;;;;;6293491;28;20056;-84
2024/03/29 08:26:59;;;;;;;7.88;1.70;;;11.70;71.20;;;;;;6270061;28;20064;-83
2024/03/29 08:29:59;;;;;;;12.00;1.70;;;11.80;70.30;;;;;;6275335;28;20061;-83
2024/03/29 08:33:02;;;;;;;11.65;1.60;;;11.70;56.90;;;;;;6270618;28;20045;-85
2024/03/29 08:36:02;;;;;;;9.27;1.70;;;11.50;70.40;;;;;;6295948;28;20063;-82
2024/03/29 08:39:03;;;;;;;9.43;1.85;;;11.30;79.30;;;;;;6253907;28;20052;-84
2024/03/29 08:42:08;;;;;;;9.55;1.67;;;11.50;93.10;;;;;;6278971;28;20060;-86
2024/03/29 08:45:09;;;;;;;11.55;1.60;;;11.40;92.50;;;;;;6236348;28;20052;-84
2024/03/29 08:48:10;;;;;;;8.52;1.45;;;11.20;94.80;;;;;;6294337;28;20066;-83
2024/03/29 08:51:11;;;;;;;7.82;1.52;;;11.30;99.90;;;;;;6255541;28;20057;-83
2024/03/29 08:54:11;;;;;;;6.82;1.50;;;11.00;99.90;;;;;;6291090;28;20427;-81
2024/03/29 08:57:12;;;;;;;9.23;1.80;;;10.80;99.90;;;;;;6250858;28;20053;-84
2024/03/29 09:00:13;;;;;;;8.32;1.50;;;10.60;99.90;;;;;;6272917;28;20143;-82
2024/03/29 09:03:14;;;;;;;8.73;1.60;;;10.60;99.90;;;;;;6269240;28;20060;-83
2024/03/29 09:06:15;;;;;;;10.07;1.70;;;10.60;99.90;;;;;;6279580;28;20129;-85
2024/03/29 09:09:16;;;;;;;5.95;1.58;;;10.50;99.90;;;;;;6257681;28;20060;-85
2024/03/29 09:12:18;;;;;;;9.20;1.85;;;10.70;99.90;;;;;;6297760;28;20060;-85
2024/03/29 09:15:19;;;;;;;6.07;1.33;;;11.40;99.90;;;;;;6257815;28;20060;-84
2024/03/29 09:18:23;;;;;;;6.00;1.33;;;11.50;99.90;;;;;;6297236;28;20180;-84
2024/03/29 09:21:24;;;;;;;6.40;1.20;;;11.30;99.90;;;;;;6282390;28;20064;-81
2024/03/29 09:24:27;;;;;;;5.47;1.15;;;10.80;99.90;;;;;;6271185;28;20079;-83
2024/03/29 09:27:28;;;;;;;6.40;1.83;;;10.70;99.90;;;;;;6297321;28;20068;-84
2024/03/29 09:30:28;;;;;;;5.82;1.10;;;11.40;99.90;;;;;;6253882;28;20056;-84
2024/03/29 09:33:29;;;;;;;5.20;0.90;;;11.90;99.90;;;;;;6295454;28;20067;-83
2024/03/29 09:36:30;;;;;;;4.22;0.90;;;12.10;97.90;;;;;;6255711;28;20480;-83
2024/03/29 09:39:30;;;;;;;5.03;1.30;;;11.90;99.90;;;;;;6278302;28;20436;-83
2024/03/29 09:42:32;;;;;;;3.92;0.93;;;11.70;99.90;;;;;;6271906;28;20080;-84
2024/03/29 09:45:32;;;;;;;2.88;0.65;;;12.10;99.90;;;;;;6278349;28;20075;-85
2024/03/29 09:48:36;;;;;;;3.63;1.05;;;12.10;99.90;;;;;;6237308;28;20056;-84
2024/03/29 09:51:37;;;;;;;3.55;0.70;;;12.90;99.90;;;;;;6278209;28;20494;-85
2024/03/29 09:54:38;;;;;;;3.47;0.75;;;13.10;94.60;;;;;;6262998;28;20057;-85
2024/03/29 09:57:38;;;;;;;2.40;0.52;;;13.60;90.20;;;;;;6270851;28;20057;-84
2024/03/29 10:00:39;;;;;;;2.75;0.70;;;13.30;84.00;;;;;;6289594;28;20496;-84
2024/03/29 10:03:40;;;;;;;4.68;0.75;;;13.10;84.00;;;;;;6254020;28;20056;-84
2024/03/29 10:06:43;;;;;;;2.83;0.63;;;12.90;91.50;;;;;;6276350;28;20060;-83
2024/03/29 10:09:46;;;;;;;2.45;0.70;;;12.40;91.80;;;;;;6268251;28;20060;-83
2024/03/29 10:12:47;;;;;;;4.43;1.00;;;12.40;99.90;;;;;;6294386;28;20048;-82
2024/03/29 10:15:50;;;;;;;4.07;1.10;;;12.30;99.70;;;;;;6252653;28;20056;-79
2024/03/29 10:18:50;;;;;;;5.15;1.02;;;12.40;99.20;;;;;;6244836;28;20045;-80
2024/03/29 10:21:51;;;;;;;6.18;1.17;;;12.10;98.90;;;;;;6313408;28;20076;-84
2024/03/29 10:24:52;;;;;;;5.65;1.50;;;12.70;98.80;;;;;;6277588;28;20480;-82
2024/03/29 10:27:53;;;;;;;4.05;0.90;;;13.50;90.10;;;;;;6254024;28;20099;-83
2024/03/29 10:30:53;;;;;;;7.18;1.10;;;13.90;64.00;;;;;;6277320;28;20123;-81
2024/03/29 10:33:54;;;;;;;6.43;1.08;;;13.70;78.10;;;;;;6245156;28;20065;-82
2024/03/29 10:36:55;;;;;;;8.10;1.20;;;14.10;75.60;;;;;;6293358;28;20144;-83
2024/03/29 10:39:58;;;;;;;7.00;1.15;;;14.50;61.20;;;;;;6270455;28;20057;-79
2024/03/29 10:43:03;;;;;;;4.97;1.30;;;14.40;73.80;;;;;;6275314;28;20060;-83
2024/03/29 10:46:05;;;;;;;5.20;1.15;;;14.30;69.00;;;;;;6234658;28;20146;-83
2024/03/29 10:49:06;;;;;;;5.45;1.00;;;15.10;33.40;;;;;;6228357;28;20107;-82
2024/03/29 10:52:06;;;;;;;6.60;1.38;;;14.80;29.30;;;;;;6326738;28;20048;-84
2024/03/29 10:55:07;;;;;;;6.78;1.77;;;14.70;33.50;;;;;;6253726;28;20696;-83
2024/03/29 10:58:07;;;;;;;6.28;1.20;;;14.60;44.70;;;;;;6290147;28;20056;-83
2024/03/29 11:01:08;;;;;;;9.38;1.60;;;14.50;47.80;;;;;;6255972;28;20060;-82
2024/03/29 11:04:09;;;;;;;10.90;1.42;;;14.50;37.80;;;;;;6227660;28;20061;-81
2024/03/29 11:07:09;;;;;;;8.40;1.88;;;14.70;59.70;;;;;;6276082;28;20060;-81
2024/03/29 11:10:10;;;;;;;5.78;1.45;;;14.30;37.30;;;;;;6268054;28;20056;-81
2024/03/29 11:13:11;;;;;;;8.23;1.25;;;14.30;57.00;;;;;;6289261;28;20563;-82
2024/03/29 11:16:16;;;;;;;7.68;1.55;;;15.10;24.10;;;;;;6269076;28;20117;-81
2024/03/29 11:19:17;;;;;;;9.27;1.38;;;15.40;1.00;;;;;;6243844;28;20050;-83
2024/03/29 11:22:17;;;;;;;4.78;1.10;;;15.10;1.00;;;;;;6274641;28;20052;-81
2024/03/29 11:25:18;;;;;;;5.75;1.23;;;14.50;9.60;;;;;;6269152;28;20067;-81
2024/03/29 11:28:21;;;;;;;7.07;1.27;;;14.70;1.00;;;;;;6273517;28;20071;-81
2024/03/29 11:31:22;;;;;;;7.32;1.60;;;14.60;36.60;;;;;;6251643;28;20079;-82
2024/03/29 11:34:22;;;;;;;9.75;1.95;;;14.00;1.00;;;;;;6291908;28;20056;-80
2024/03/29 11:37:23;;;;;;;11.85;1.90;;;14.00;4.00;;;;;;6252399;28;20095;-81
2024/03/29 11:40:24;;;;;;;9.95;2.00;;;13.70;28.20;;;;;;6291765;28;20067;-80
2024/03/29 11:43:25;;;;;;;10.60;2.42;;;13.50;31.50;;;;;;6238100;28;20056;-81
2024/03/29 11:46:26;;;;;;;9.65;1.90;;;13.50;48.40;;;;;;6292748;28;20044;-82
2024/03/29 11:49:26;;;;;;;10.25;1.92;;;13.60;48.60;;;;;;6227031;28;20053;-81
2024/03/29 11:52:28;;;;;;;6.88;1.33;;;13.60;25.20;;;;;;6274043;28;20106;-80
2024/03/29 11:55:28;;;;;;;9.15;1.83;;;13.80;16.30;;;;;;6268578;28;20061;-80
2024/03/29 11:58:29;;;;;;;8.50;1.58;;;14.10;23.10;;;;;;6276229;28;20389;-81
2024/03/29 12:01:29;;;;;;;4.60;1.10;;;15.70;18.50;;;;;;6267523;28;20480;-82
2024/03/29 12:04:30;;;;;;;5.45;1.10;;;16.40;1.00;;;;;;6274677;28;20061;-82
2024/03/29 12:07:31;;;;;;;6.75;1.58;;;16.50;1.00;;;;;;6268649;28;20053;-83
2024/03/29 12:10:31;;;;;;;8.30;1.33;;;15.50;1.00;;;;;;6255438;28;20053;-81
2024/03/29 12:13:32;;;;;;;5.40;0.95;;;14.90;1.00;;;;;;6287389;28;20156;-81
2024/03/29 12:16:33;;;;;;;4.82;1.15;;;14.80;1.00;;;;;;6270355;28;20056;-83
2024/03/29 12:19:36;;;;;;;6.78;1.55;;;15.50;1.00;;;;;;6243614;28;20056;-81
2024/03/29 12:22:36;;;;;;;6.28;1.08;;;16.60;1.00;;;;;;6295807;28;20056;-82
2024/03/29 12:25:37;;;;;;;6.82;1.98;;;16.20;1.00;;;;;;6257165;28;20057;-80
2024/03/29 12:28:37;;;;;;;7.43;1.33;;;15.70;1.00;;;;;;6265871;28;20060;-81
2024/03/29 12:31:39;;;;;;;4.93;1.13;;;15.60;1.00;;;;;;6268970;28;20435;-81
2024/03/29 12:34:39;;;;;;;6.05;1.38;;;15.10;1.00;;;;;;6292599;28;20064;-82
2024/03/29 12:37:40;;;;;;;8.52;1.48;;;14.80;1.00;;;;;;6251419;28;20466;-85
2024/03/29 12:40:40;;;;;;;9.18;1.70;;;14.70;1.00;;;;;;6305964;28;20110;-80
2024/03/29 12:43:41;;;;;;;5.28;1.40;;;14.40;1.00;;;;;;6265277;28;20532;-95
2024/03/29 12:46:42;;;;;;;6.53;1.50;;;14.90;1.00;;;;;;6279263;28;20049;-88
2024/03/29 12:49:42;;;;;;;6.47;1.55;;;14.80;1.00;;;;;;6306365;28;20075;-89
2024/03/29 12:52:43;;;;;;;6.95;1.27;;;14.70;1.00;;;;;;6279690;28;20132;-91
2024/03/29 12:55:45;;;;;;;6.57;1.38;;;14.70;1.00;;;;;;6283516;28;20095;-83
2024/03/29 12:58:48;;;;;;;7.43;1.27;;;14.50;1.00;;;;;;6265320;28;20040;-91
2024/03/29 13:01:53;;;;;;;8.52;1.48;;;14.40;1.00;;;;;;6275801;28;20076;-83
2024/03/29 13:04:54;;;;;;;10.05;1.50;;;14.40;1.00;;;;;;6257495;28;20114;-85
2024/03/29 13:07:56;;;;;;;5.78;1.50;;;14.30;1.00;;;;;;6257872;28;20096;-88
2024/03/29 13:10:58;;;;;;;10.10;1.90;;;14.20;1.00;;;;;;6291083;28;20064;-84
2024/03/29 13:13:58;;;;;;;6.45;1.27;;;13.90;1.00;;;;;;6251902;28;20573;-83
2024/03/29 13:16:59;;;;;;;8.15;1.88;;;14.00;1.00;;;;;;6272117;28;20540;-83
2024/03/29 13:20:00;;;;;;;7.15;1.50;;;14.30;1.00;;;;;;6269286;28;20059;-84
2024/03/29 13:23:00;;;;;;;6.47;1.27;;;14.80;1.00;;;;;;6302917;28;20056;-84
2024/03/29 13:26:01;;;;;;;6.65;1.50;;;15.70;1.00;;;;;;6252558;28;20870;-83
2024/03/29 13:29:02;;;;;;;5.50;1.30;;;16.90;1.00;;;;;;6295732;28;20068;-83
2024/03/29 13:32:03;;;;;;;6.20;1.27;;;16.80;1.00;;;;;;6260025;28;20053;-84
2024/03/29 13:35:09;;;;;;;5.88;1.42;;;16.50;1.00;;;;;;6254272;28;20067;-86
2024/03/29 13:38:10;;;;;;;8.48;1.42;;;16.00;1.00;;;;;;6264386;28;20053;-85
2024/03/29 13:41:13;;;;;;;7.53;1.40;;;15.30;1.00;;;;;;6272921;28;20057;-85
2024/03/29 13:44:17;;;;;;;7.22;1.30;;;15.40;1.00;;;;;;6266778;28;20048;-84
2024/03/29 13:47:17;;;;;;;6.97;1.17;;;16.10;1.00;;;;;;6278449;28;20056;-83
2024/03/29 13:50:19;;;;;;;7.25;1.40;;;15.80;1.00;;;;;;6269877;28;20066;-84
2024/03/29 13:53:20;;;;;;;6.07;1.23;;;15.90;1.00;;;;;;6278181;28;20068;-80
2024/03/29 13:56:20;;;;;;;9.15;1.40;;;15.90;1.00;;;;;;6270687;28;20470;-83
2024/03/29 13:59:21;;;;;;;5.75;1.33;;;15.80;1.00;;;;;;6238898;28;20444;-82
2024/03/29 14:02:24;;;;;;;5.53;1.48;;;16.20;1.00;;;;;;6283773;28;20056;-83
2024/03/29 14:05:24;;;;;;;4.95;1.10;;;16.40;1.00;;;;;;6257327;28;20064;-85
2024/03/29 14:08:25;;;;;;;6.22;1.50;;;16.30;1.00;;;;;;6262034;28;20052;-83
2024/03/29 14:11:26;;;;;;;5.05;1.17;;;16.30;1.00;;;;;;6298559;28;20044;-83
2024/03/29 14:14:27;;;;;;;6.63;1.48;;;16.90;1.00;;;;;;6252783;28;20056;-85
2024/03/29 14:17:28;;;;;;;5.60;1.05;;;16.90;1.00;;;;;;6272793;28;20071;-84
2024/03/29 14:20:29;;;;;;;5.95;1.00;;;16.90;1.00;;;;;;6265074;28;20420;-84
2024/03/29 14:23:29;;;;;;;5.55;1.08;;;17.00;1.00;;;;;;6272239;28;20063;-84
2024/03/29 14:26:30;;;;;;;3.75;1.00;;;17.50;1.00;;;;;;6277356;28;20056;-83
2024/03/29 14:29:31;;;;;;;6.10;1.13;;;17.10;1.00;;;;;;6261499;28;20113;-85
2024/03/29 14:32:31;;;;;;;4.82;1.02;;;17.30;1.00;;;;;;6254042;28;20056;-82
2024/03/29 14:35:32;;;;;;;6.63;1.27;;;16.80;1.00;;;;;;6271274;28;20068;-83
2024/03/29 14:38:33;;;;;;;5.35;1.25;;;17.20;1.00;;;;;;6277224;28;20063;-85
2024/03/29 14:41:36;;;;;;;4.20;1.20;;;17.20;1.00;;;;;;6253415;28;20052;-82
2024/03/29 14:44:37;;;;;;;8.93;1.35;;;17.40;1.00;;;;;;6258254;28;20057;-83
2024/03/29 14:47:37;;;;;;;7.18;1.33;;;16.70;1.00;;;;;;6272084;28;20052;-83
2024/03/29 14:50:38;;;;;;;10.45;1.90;;;16.60;1.00;;;;;;6256471;28;20114;-83
2024/03/29 14:53:39;;;;;;;7.13;1.65;;;16.10;1.00;;;;;;6305714;28;20053;-85
2024/03/29 14:56:39;;;;;;;7.63;1.70;;;16.20;1.00;;;;;;6282310;28;20063;-83
2024/03/29 14:59:40;;;;;;;7.95;2.10;;;16.20;1.00;;;;;;6246999;28;20515;-83
2024/03/29 15:02:42;;;;;;;9.02;1.80;;;16.00;1.00;;;;;;6269895;28;20063;-84
2024/03/29 15:05:43;;;;;;;9.20;1.77;;;15.90;1.00;;;;;;6317346;28;20067;-84
2024/03/29 15:08:43;;;;;;;6.43;1.50;;;16.40;1.00;;;;;;6274076;28;20074;-83
2024/03/29 15:11:44;;;;;;;8.57;1.95;;;16.30;1.00;;;;;;6252888;28;20744;-83
2024/03/29 15:14:45;;;;;;;9.27;1.80;;;15.70;1.00;;;;;;6266982;28;20492;-83
2024/03/29 15:17:46;;;;;;;8.85;1.70;;;15.40;1.00;;;;;;6261122;28;20060;-82
2024/03/29 15:20:47;;;;;;;10.93;2.08;;;15.20;1.00;;;;;;6257324;28;20066;-82
2024/03/29 15:23:47;;;;;;;9.40;1.73;;;14.90;1.00;;;;;;6267551;28;20424;-83
2024/03/29 15:26:50;;;;;;;9.02;1.77;;;14.70;1.00;;;;;;6251257;28;20052;-82
2024/03/29 15:29:50;;;;;;;12.55;2.40;;;14.90;1.00;;;;;;6253091;28;20405;-83
2024/03/29 15:32:51;;;;;;;9.15;1.90;;;15.40;1.00;;;;;;6277836;28;20064;-84
2024/03/29 15:35:52;;;;;;;13.30;1.83;;;15.30;1.00;;;;;;6321472;28;20140;-84
2024/03/29 15:39:04;;;;;;;9.50;1.80;;;15.00;1.00;;;;;;6283959;28;20044;-85
2024/03/29 15:42:04;;;;;;;10.48;1.73;;;15.00;1.00;;;;;;6251739;28;20060;-83
2024/03/29 15:45:05;;;;;;;12.00;1.88;;;14.80;1.00;;;;;;6255817;28;20515;-83
2024/03/29 15:48:06;;;;;;;10.90;1.60;;;14.70;1.00;;;;;;6267655;28;20049;-83
2024/03/29 15:51:10;;;;;;;8.57;1.70;;;14.40;1.00;;;;;;6273285;28;20056;-82
2024/03/29 15:54:16;;;;;;;8.75;1.58;;;14.10;1.00;;;;;;6251877;28;20417;-82
2024/03/29 15:57:17;;;;;;;10.55;1.67;;;14.00;1.00;;;;;;6245087;28;20061;-84